Time;durP1;ratioP1;P1;durP2;ratioP2;P2;SDS_P1;SDS_P2;PMS_P1;PMS_P2;Temp;Humidity;BMP_temperature;BMP_pressure;BME280_temperature;BME280_humidity;BME280_pressure;Samples;Min_cycle;Max_cycle;Signal;HPM_P1;HPM_P2
2022/05/06 00:01:59;;;;;;;;;;;21.50;52.00;;;;;;5096345;28;19931;-49
2022/05/06 00:04:26;;;;;;;;;;;21.50;52.00;;;;;;5096298;28;20010;-48
2022/05/06 00:06:53;;;;;;;;;;;21.60;52.10;;;;;;5077281;28;19928;-50
2022/05/06 00:09:20;;;;;;;;;;;21.60;52.10;;;;;;5094374;28;19923;-48
2022/05/06 00:11:47;;;;;;;;;;;21.50;52.00;;;;;;5112921;28;19924;-47
2022/05/06 00:14:14;;;;;;;;;;;21.60;52.10;;;;;;5096590;28;19938;-49
2022/05/06 00:16:41;;;;;;;;;;;21.60;52.10;;;;;;5095821;28;19924;-48
2022/05/06 00:19:08;;;;;;;;;;;21.60;52.10;;;;;;5095869;28;20402;-48
2022/05/06 00:21:35;;;;;;;;;;;21.60;52.10;;;;;;5095841;28;19931;-48
2022/05/06 00:24:03;;;;;;;;;;;21.50;52.60;;;;;;5096072;28;20321;-47
2022/05/06 00:26:32;;;;;;;;;;;21.60;52.10;;;;;;5095819;28;19928;-54
2022/05/06 00:28:59;;;;;;;;;;;21.50;52.00;;;;;;5095126;28;20327;-55
2022/05/06 00:31:26;;;;;;;;;;;21.60;52.10;;;;;;5092760;28;19924;-53
2022/05/06 00:33:53;;;;;;;;;;;21.50;52.00;;;;;;5082036;28;19925;-55
2022/05/06 00:36:21;;;;;;;;;;;21.50;52.00;;;;;;5095200;28;19931;-53
2022/05/06 00:38:47;;;;;;;;;;;21.50;52.00;;;;;;5100660;28;19925;-54
2022/05/06 00:41:14;;;;;;;;;;;21.50;52.00;;;;;;5095997;28;19924;-54
2022/05/06 00:43:42;;;;;;;;;;;21.50;52.20;;;;;;5095517;28;19928;-53
2022/05/06 00:46:14;;;;;;;;;;;21.60;52.10;;;;;;5095768;28;20310;-55
2022/05/06 00:48:46;;;;;;;;;;;21.50;52.00;;;;;;5095371;28;19938;-53
2022/05/06 00:51:13;;;;;;;;;;;21.50;52.00;;;;;;5095840;28;20283;-54
2022/05/06 00:53:43;;;;;;;;;;;21.50;52.00;;;;;;5077420;28;20715;-51
2022/05/06 00:56:11;;;;;;;;;;;21.50;52.00;;;;;;5095665;28;19924;-53
2022/05/06 00:58:39;;;;;;;;;;;21.50;52.10;;;;;;5095484;28;19924;-55
2022/05/06 01:01:06;;;;;;;;;;;21.50;52.10;;;;;;5093993;28;20329;-55
2022/05/06 01:03:34;;;;;;;;;;;21.50;52.00;;;;;;5075263;28;19925;-55
2022/05/06 01:06:04;;;;;;;;;;;21.50;52.10;;;;;;5075081;28;19938;-52
2022/05/06 01:08:31;;;;;;;;;;;21.50;52.00;;;;;;5075001;28;19931;-50
2022/05/06 01:10:58;;;;;;;;;;;21.50;52.10;;;;;;5074697;28;19925;-53
2022/05/06 01:13:25;;;;;;;;;;;21.50;52.00;;;;;;5092208;28;19924;-53
2022/05/06 01:15:56;;;;;;;;;;;21.50;52.10;;;;;;5094761;28;19928;-52
2022/05/06 01:18:23;;;;;;;;;;;21.50;52.00;;;;;;5094982;28;19931;-54
2022/05/06 01:20:51;;;;;;;;;;;21.50;52.00;;;;;;5094844;28;20031;-50
2022/05/06 01:23:19;;;;;;;;;;;21.50;52.10;;;;;;5094712;28;19924;-47
2022/05/06 01:25:47;;;;;;;;;;;21.50;52.10;;;;;;5094918;28;19931;-47
2022/05/06 01:28:14;;;;;;;;;;;21.50;52.00;;;;;;5087869;28;19924;-50
2022/05/06 01:30:42;;;;;;;;;;;21.50;52.10;;;;;;5074253;28;19924;-47
2022/05/06 01:33:10;;;;;;;;;;;21.50;52.10;;;;;;5075501;28;19924;-47
2022/05/06 01:35:44;;;;;;;;;;;21.50;52.10;;;;;;5092493;28;20083;-48
2022/05/06 01:38:30;;;;;;;;;;;21.50;52.00;;;;;;5100138;28;20329;-47
2022/05/06 01:41:03;;;;;;;;;;;21.50;52.00;;;;;;5114834;28;19924;-48
2022/05/06 01:43:50;;;;;;;;;;;21.50;52.00;;;;;;5114748;28;19969;-48
2022/05/06 01:46:20;;;;;;;;;;;21.50;52.00;;;;;;5108569;28;19924;-50
2022/05/06 01:48:47;;;;;;;;;;;21.50;52.00;;;;;;5094130;28;19924;-49
2022/05/06 01:51:15;;;;;;;;;;;21.50;52.00;;;;;;5075652;28;19950;-49
2022/05/06 01:53:43;;;;;;;;;;;21.50;52.10;;;;;;5093950;28;19928;-47
2022/05/06 01:56:10;;;;;;;;;;;21.50;52.10;;;;;;5094059;28;20384;-49
2022/05/06 01:58:38;;;;;;;;;;;21.50;52.00;;;;;;5093643;28;19932;-47
2022/05/06 02:01:05;;;;;;;;;;;21.50;52.00;;;;;;5094060;28;19931;-47
2022/05/06 02:06:18;;;;;;;;;;;21.50;52.00;;;;;;5094104;28;20375;-49
2022/05/06 02:08:45;;;;;;;;;;;21.50;52.00;;;;;;5089403;28;19924;-47
2022/05/06 02:11:12;;;;;;;;;;;21.50;52.10;;;;;;5072964;28;19929;-48
2022/05/06 02:13:39;;;;;;;;;;;21.50;52.10;;;;;;5092713;28;19928;-48
2022/05/06 02:16:06;;;;;;;;;;;21.50;52.10;;;;;;5093773;28;19931;-46
2022/05/06 02:18:33;;;;;;;;;;;21.50;52.10;;;;;;5093727;28;20372;-47
2022/05/06 02:21:01;;;;;;;;;;;21.50;52.00;;;;;;5093363;28;19928;-47
2022/05/06 02:23:28;;;;;;;;;;;21.50;52.00;;;;;;5093615;28;19924;-47
2022/05/06 02:25:56;;;;;;;;;;;21.50;52.00;;;;;;5075801;28;19924;-48
2022/05/06 02:28:23;;;;;;;;;;;21.50;52.10;;;;;;5093624;28;20288;-49
2022/05/06 02:33:36;;;;;;;;;;;21.50;52.10;;;;;;5077868;28;20380;-49
2022/05/06 02:36:03;;;;;;;;;;;21.50;52.10;;;;;;5093198;28;19931;-46
2022/05/06 02:38:30;;;;;;;;;;;21.50;52.00;;;;;;5101788;28;19930;-49
2022/05/06 02:40:57;;;;;;;;;;;21.50;52.00;;;;;;5113685;28;19931;-50
2022/05/06 02:43:24;;;;;;;;;;;21.50;52.10;;;;;;5114392;28;19997;-48
2022/05/06 02:45:52;;;;;;;;;;;21.50;52.00;;;;;;5111095;28;19931;-47
2022/05/06 02:48:19;;;;;;;;;;;21.50;52.10;;;;;;5093264;28;19959;-47
2022/05/06 02:50:47;;;;;;;;;;;21.50;52.10;;;;;;5075041;28;19930;-47
2022/05/06 02:53:14;;;;;;;;;;;21.50;52.10;;;;;;5093199;28;19924;-47
2022/05/06 02:55:41;;;;;;;;;;;21.50;52.10;;;;;;5073637;28;19925;-47
2022/05/06 02:58:09;;;;;;;;;;;21.50;52.10;;;;;;5072998;28;20347;-46
2022/05/06 03:00:37;;;;;;;;;;;21.50;52.10;;;;;;5072934;28;20372;-47
2022/05/06 03:03:04;;;;;;;;;;;21.50;52.10;;;;;;5072966;28;20299;-47
2022/05/06 03:05:32;;;;;;;;;;;21.50;52.10;;;;;;5073000;28;19970;-47
2022/05/06 03:07:59;;;;;;;;;;;21.50;52.10;;;;;;5076040;28;19973;-48
2022/05/06 03:10:26;;;;;;;;;;;21.50;52.10;;;;;;5071492;28;19924;-49
2022/05/06 03:12:58;;;;;;;;;;;21.50;52.10;;;;;;5072575;28;19924;-46
2022/05/06 03:15:25;;;;;;;;;;;21.50;52.10;;;;;;5072826;28;19924;-46
2022/05/06 03:17:52;;;;;;;;;;;21.50;52.10;;;;;;5072924;28;19936;-49
2022/05/06 03:20:20;;;;;;;;;;;21.50;52.10;;;;;;5075975;28;19931;-47
2022/05/06 03:22:47;;;;;;;;;;;21.50;52.10;;;;;;5093378;28;20372;-49
2022/05/06 03:25:14;;;;;;;;;;;21.50;52.10;;;;;;5092710;28;19974;-50
2022/05/06 03:28:01;;;;;;;;;;;21.50;52.10;;;;;;5090321;28;20181;-49
2022/05/06 03:30:30;;;;;;;;;;;21.50;52.10;;;;;;5092682;28;19931;-49
2022/05/06 03:32:58;;;;;;;;;;;21.50;52.10;;;;;;5092704;28;20406;-47
2022/05/06 03:35:27;;;;;;;;;;;21.50;52.10;;;;;;5093034;28;20409;-48
2022/05/06 03:37:54;;;;;;;;;;;21.50;52.10;;;;;;5095889;28;19928;-55
2022/05/06 03:40:21;;;;;;;;;;;21.50;52.10;;;;;;5112834;28;19923;-54
2022/05/06 03:42:48;;;;;;;;;;;21.50;52.10;;;;;;5113227;28;20276;-47
2022/05/06 03:45:15;;;;;;;;;;;21.50;52.10;;;;;;5112961;28;19924;-47
2022/05/06 03:47:43;;;;;;;;;;;21.50;52.10;;;;;;5095079;28;20272;-52
2022/05/06 03:52:55;;;;;;;;;;;21.50;52.00;;;;;;5072463;28;19925;-54
2022/05/06 03:55:22;;;;;;;;;;;21.50;52.10;;;;;;5072723;28;19974;-54
2022/05/06 03:57:49;;;;;;;;;;;21.50;52.10;;;;;;5072080;28;19931;-54
2022/05/06 04:00:17;;;;;;;;;;;21.50;52.10;;;;;;5072804;28;19932;-54
2022/05/06 04:02:43;;;;;;;;;;;21.50;52.60;;;;;;5072218;28;20371;-55
2022/05/06 04:05:11;;;;;;;;;;;21.50;52.00;;;;;;5083112;28;19924;-56
2022/05/06 04:07:38;;;;;;;;;;;21.50;52.10;;;;;;5092561;28;20052;-53
2022/05/06 04:10:05;;;;;;;;;;;21.50;52.00;;;;;;5058717;28;20474;-53
2022/05/06 04:12:32;;;;;;;;;;;21.50;52.60;;;;;;5071898;28;19924;-53
2022/05/06 04:14:59;;;;;;;;;;;21.50;52.10;;;;;;5074866;28;19978;-49
2022/05/06 04:17:26;;;;;;;;;;;21.50;52.10;;;;;;5086912;28;19924;-53
2022/05/06 04:25:24;;;;;;;;;;;21.50;52.00;;;;;;5094183;28;19928;-48
2022/05/06 04:27:51;;;;;;;;;;;21.50;52.00;;;;;;5096070;28;19969;-48
2022/05/06 04:30:18;;;;;;;;;;;21.50;52.00;;;;;;5096195;28;19947;-55
2022/05/06 04:32:45;;;;;;;;;;;21.50;52.00;;;;;;5095593;28;19924;-53
2022/05/06 04:35:15;;;;;;;;;;;21.50;52.00;;;;;;5095630;28;19928;-55
2022/05/06 04:37:43;;;;;;;;;;;21.50;52.00;;;;;;5096883;28;19973;-56
2022/05/06 04:40:11;;;;;;;;;;;21.60;52.10;;;;;;5116304;28;19930;-53
2022/05/06 04:42:38;;;;;;;;;;;21.50;52.00;;;;;;5115581;28;20383;-47
2022/05/06 04:45:05;;;;;;;;;;;21.60;52.00;;;;;;5110232;28;19924;-54
2022/05/06 04:47:34;;;;;;;;;;;21.50;52.00;;;;;;5095443;28;19924;-46
2022/05/06 04:50:02;;;;;;;;;;;21.60;52.00;;;;;;5095723;28;20287;-50
2022/05/06 04:52:28;;;;;;;;;;;21.60;52.00;;;;;;5095704;28;19931;-54
2022/05/06 04:54:55;;;;;;;;;;;21.60;52.10;;;;;;5094807;28;19924;-48
2022/05/06 04:57:22;;;;;;;;;;;21.60;52.00;;;;;;5094892;28;20525;-46
2022/05/06 04:59:49;;;;;;;;;;;21.50;51.90;;;;;;5095675;28;19924;-49
2022/05/06 05:02:17;;;;;;;;;;;21.50;51.90;;;;;;5095621;28;20002;-48
2022/05/06 05:04:44;;;;;;;;;;;21.60;52.00;;;;;;5095349;28;20409;-48
2022/05/06 05:07:11;;;;;;;;;;;21.60;52.00;;;;;;5094600;28;19974;-47
2022/05/06 05:09:38;;;;;;;;;;;21.60;52.00;;;;;;5082841;28;19928;-49
2022/05/06 05:12:07;;;;;;;;;;;21.60;52.00;;;;;;5074748;28;19924;-53
2022/05/06 05:14:38;;;;;;;;;;;21.60;52.00;;;;;;5093339;28;20318;-47
2022/05/06 05:17:05;;;;;;;;;;;21.60;52.00;;;;;;5095145;28;19924;-48
2022/05/06 05:19:32;;;;;;;;;;;21.60;51.90;;;;;;5094375;28;19924;-46
2022/05/06 05:21:59;;;;;;;;;;;21.60;51.90;;;;;;5094430;28;19931;-48
2022/05/06 05:24:26;;;;;;;;;;;21.60;51.90;;;;;;5094073;28;19924;-45
2022/05/06 05:26:57;;;;;;;;;;;21.60;51.90;;;;;;5094134;28;19951;-46
2022/05/06 05:29:28;;;;;;;;;;;21.60;51.90;;;;;;5094686;28;19949;-47
2022/05/06 05:31:56;;;;;;;;;;;21.60;51.90;;;;;;5095026;28;19939;-46
2022/05/06 05:34:23;;;;;;;;;;;21.60;52.50;;;;;;5094529;28;19951;-46
2022/05/06 05:36:50;;;;;;;;;;;21.60;51.90;;;;;;5094359;28;19931;-48
2022/05/06 05:39:17;;;;;;;;;;;21.60;52.40;;;;;;5109360;28;19930;-47
2022/05/06 05:41:44;;;;;;;;;;;21.60;51.80;;;;;;5114526;28;19923;-50
2022/05/06 05:49:41;;;;;;;;;;;21.70;51.90;;;;;;5094505;28;19924;-52
2022/05/06 05:52:08;;;;;;;;;;;21.70;51.80;;;;;;5094353;28;19924;-48
2022/05/06 05:54:36;;;;;;;;;;;21.70;51.90;;;;;;5094054;28;19924;-52
2022/05/06 05:57:04;;;;;;;;;;;21.70;51.80;;;;;;5093686;28;19935;-50
2022/05/06 05:59:31;;;;;;;;;;;21.70;51.80;;;;;;5094084;28;19931;-48
2022/05/06 06:01:59;;;;;;;;;;;21.70;51.80;;;;;;5093842;28;19924;-47
2022/05/06 06:04:26;;;;;;;;;;;21.70;51.80;;;;;;5093947;28;20045;-52
2022/05/06 06:06:53;;;;;;;;;;;21.70;51.80;;;;;;5093895;28;19928;-47
2022/05/06 06:09:22;;;;;;;;;;;21.70;51.80;;;;;;5096440;28;19928;-53
2022/05/06 06:11:49;;;;;;;;;;;21.70;51.70;;;;;;5093269;28;19924;-48
2022/05/06 06:14:16;;;;;;;;;;;21.70;51.70;;;;;;5094059;28;20345;-48
2022/05/06 06:16:44;;;;;;;;;;;21.70;51.70;;;;;;5092087;28;19928;-52
2022/05/06 06:19:11;;;;;;;;;;;21.70;51.70;;;;;;5094247;28;20333;-54
2022/05/06 06:21:38;;;;;;;;;;;21.70;51.70;;;;;;5075586;28;20010;-52
2022/05/06 06:24:05;;;;;;;;;;;21.70;51.70;;;;;;5071779;28;19932;-52
2022/05/06 06:26:32;;;;;;;;;;;21.70;51.70;;;;;;5073680;28;19925;-49
2022/05/06 06:29:00;;;;;;;;;;;21.70;51.70;;;;;;5073295;28;19931;-48
2022/05/06 06:31:30;;;;;;;;;;;21.70;51.70;;;;;;5072926;28;19931;-45
2022/05/06 06:34:00;;;;;;;;;;;21.70;51.60;;;;;;5073434;28;19970;-46
2022/05/06 06:36:27;;;;;;;;;;;21.70;51.60;;;;;;5073128;28;19933;-52
2022/05/06 06:38:55;;;;;;;;;;;21.70;51.60;;;;;;5080713;28;19924;-48
2022/05/06 06:41:22;;;;;;;;;;;21.70;51.70;;;;;;5073209;28;19939;-54
2022/05/06 06:43:49;;;;;;;;;;;21.80;51.80;;;;;;5072637;28;19925;-50
2022/05/06 06:46:16;;;;;;;;;;;21.80;51.70;;;;;;5072879;28;19924;-49
2022/05/06 06:48:44;;;;;;;;;;;21.80;51.70;;;;;;5072761;28;20324;-48
2022/05/06 06:51:11;;;;;;;;;;;21.80;51.60;;;;;;5072617;28;19931;-47
2022/05/06 06:53:38;;;;;;;;;;;21.80;51.60;;;;;;5072742;28;19928;-46
2022/05/06 06:56:05;;;;;;;;;;;21.80;51.60;;;;;;5073044;28;19928;-48
2022/05/06 06:58:32;;;;;;;;;;;21.80;51.50;;;;;;5072849;28;19931;-49
2022/05/06 07:00:59;;;;;;;;;;;21.80;51.50;;;;;;5072686;28;19932;-48
2022/05/06 07:03:26;;;;;;;;;;;21.80;51.50;;;;;;5072690;28;19925;-47
2022/05/06 07:14:21;;;;;;;;;;;21.80;51.40;;;;;;5070160;28;20319;-52
2022/05/06 07:16:49;;;;;;;;;;;21.90;51.40;;;;;;5070192;28;19924;-51
2022/05/06 07:19:16;;;;;;;;;;;21.90;51.40;;;;;;5070615;28;19932;-53
2022/05/06 07:21:44;;;;;;;;;;;21.90;51.30;;;;;;5070229;28;20362;-55
2022/05/06 07:24:11;;;;;;;;;;;22.00;51.40;;;;;;5070195;28;19963;-50
2022/05/06 07:26:38;;;;;;;;;;;22.00;51.30;;;;;;5070318;28;19929;-51
2022/05/06 07:29:05;;;;;;;;;;;22.00;51.30;;;;;;5069685;28;19935;-55
2022/05/06 07:31:32;;;;;;;;;;;22.00;51.20;;;;;;5070084;28;19931;-54
2022/05/06 07:33:59;;;;;;;;;;;22.00;51.20;;;;;;5070320;28;19990;-55
2022/05/06 07:36:26;;;;;;;;;;;22.00;51.20;;;;;;5070413;28;19932;-54
2022/05/06 07:38:53;;;;;;;;;;;22.00;51.10;;;;;;5069533;28;19924;-48
2022/05/06 07:41:20;;;;;;;;;;;22.00;51.10;;;;;;5069707;28;19932;-53
2022/05/06 07:43:47;;;;;;;;;;;22.10;51.10;;;;;;5070915;28;19954;-52
2022/05/06 07:46:14;;;;;;;;;;;22.10;51.10;;;;;;5070499;28;20023;-49
2022/05/06 07:48:41;;;;;;;;;;;22.10;51.00;;;;;;5071550;28;20407;-47
2022/05/06 07:51:08;;;;;;;;;;;22.10;50.90;;;;;;5062517;28;19931;-49
2022/05/06 07:53:36;;;;;;;;;;;22.10;50.90;;;;;;5055972;28;19925;-48
2022/05/06 07:56:03;;;;;;;;;;;22.20;50.90;;;;;;5056050;28;19931;-47
2022/05/06 07:58:30;;;;;;;;;;;22.20;50.90;;;;;;5055813;28;19932;-52
2022/05/06 08:00:57;;;;;;;;;;;22.20;51.20;;;;;;5055919;28;19932;-51
2022/05/06 08:06:09;;;;;;;;;;;22.20;50.80;;;;;;5076011;28;19933;-49
2022/05/06 08:08:36;;;;;;;;;;;22.20;50.70;;;;;;5068399;28;19924;-49
2022/05/06 08:11:03;;;;;;;;;;;22.20;50.70;;;;;;5075400;28;19932;-49
2022/05/06 08:13:30;;;;;;;;;;;22.20;50.70;;;;;;5075944;28;19933;-50
2022/05/06 08:15:57;;;;;;;;;;;22.20;50.60;;;;;;5075927;28;19924;-50
2022/05/06 08:18:25;;;;;;;;;;;22.20;50.60;;;;;;5075934;28;20288;-51
2022/05/06 08:20:52;;;;;;;;;;;22.20;50.50;;;;;;5107295;28;19931;-48
2022/05/06 08:23:22;;;;;;;;;;;22.30;50.60;;;;;;5076893;28;20273;-48
2022/05/06 08:25:51;;;;;;;;;;;22.30;50.50;;;;;;5096147;28;19973;-52
2022/05/06 08:28:19;;;;;;;;;;;22.30;50.50;;;;;;5095589;28;19931;-52
2022/05/06 08:30:47;;;;;;;;;;;22.40;50.50;;;;;;5095841;28;19928;-53
2022/05/06 08:33:14;;;;;;;;;;;22.40;50.50;;;;;;5095754;28;19934;-51
2022/05/06 08:35:45;;;;;;;;;;;22.40;50.40;;;;;;5095807;28;19928;-54
2022/05/06 08:38:12;;;;;;;;;;;22.40;50.30;;;;;;5083347;28;20426;-47
2022/05/06 08:40:39;;;;;;;;;;;22.40;50.30;;;;;;5116359;28;19976;-49
2022/05/06 08:43:06;;;;;;;;;;;22.40;50.30;;;;;;5116068;28;19923;-49
2022/05/06 08:51:04;;;;;;;;;;;22.50;50.20;;;;;;5095362;28;19928;-48
2022/05/06 08:53:33;;;;;;;;;;;22.50;50.80;;;;;;5095424;28;20283;-51
2022/05/06 08:56:02;;;;;;;;;;;22.50;50.10;;;;;;5095473;28;20368;-49
2022/05/06 08:58:34;;;;;;;;;;;22.50;50.10;;;;;;5094982;28;19938;-49
2022/05/06 09:01:06;;;;;;;;;;;22.50;50.10;;;;;;5094965;28;19924;-48
2022/05/06 09:03:41;;;;;;;;;;;22.50;50.10;;;;;;5095171;28;20397;-50
2022/05/06 09:06:26;;;;;;;;;;;22.50;50.10;;;;;;5094630;28;19924;-50
2022/05/06 09:08:54;;;;;;;;;;;22.50;50.00;;;;;;5089395;28;19928;-49
2022/05/06 09:12:40;;;;;;;;;;;22.50;50.00;;;;;;5074347;28;19931;-50
2022/05/06 09:16:39;;;;;;;;;;;22.60;50.10;;;;;;5074822;28;20018;-47
2022/05/06 09:17:22;;;;;;;;;;;22.60;50.10;;;;;;5074828;28;19924;-50
2022/05/06 09:19:49;;;;;;;;;;;22.50;50.00;;;;;;5074612;28;19924;-47
2022/05/06 09:22:16;;;;;;;;;;;22.50;50.00;;;;;;5078403;28;19924;-49
2022/05/06 09:24:44;;;;;;;;;;;22.60;50.00;;;;;;5094776;28;19931;-50
2022/05/06 09:27:12;;;;;;;;;;;22.60;50.60;;;;;;5094742;28;20378;-47
2022/05/06 09:29:39;;;;;;;;;;;22.60;50.00;;;;;;5094780;28;19928;-48
2022/05/06 09:32:20;;;;;;;;;;;22.60;50.00;;;;;;5094486;28;19924;-49
2022/05/06 09:34:49;;;;;;;;;;;22.60;49.90;;;;;;5094559;28;19931;-50
2022/05/06 09:37:35;;;;;;;;;;;22.60;49.80;;;;;;5094282;28;19924;-48
2022/05/06 09:40:08;;;;;;;;;;;22.60;49.80;;;;;;5074700;28;19924;-47
2022/05/06 09:42:45;;;;;;;;;;;22.70;49.80;;;;;;5074214;28;19932;-48
2022/05/06 09:45:13;;;;;;;;;;;22.70;49.80;;;;;;5078092;28;19924;-47
2022/05/06 09:47:41;;;;;;;;;;;22.70;49.80;;;;;;5076623;28;19931;-49
2022/05/06 09:50:09;;;;;;;;;;;22.70;49.70;;;;;;5094283;28;19924;-50
2022/05/06 09:52:36;;;;;;;;;;;22.80;49.80;;;;;;5093679;28;20368;-48
2022/05/06 09:55:05;;;;;;;;;;;22.80;49.70;;;;;;5093881;28;20011;-50
2022/05/06 09:57:35;;;;;;;;;;;22.80;49.70;;;;;;5094163;28;19924;-50
2022/05/06 10:00:04;;;;;;;;;;;22.80;49.70;;;;;;5094843;28;20339;-48
2022/05/06 10:02:31;;;;;;;;;;;22.80;49.70;;;;;;5092338;28;20318;-55
2022/05/06 10:04:59;;;;;;;;;;;22.80;49.60;;;;;;5093847;28;20384;-52
2022/05/06 10:07:27;;;;;;;;;;;22.80;49.60;;;;;;5093950;28;19963;-50
2022/05/06 10:10:01;;;;;;;;;;;22.80;49.60;;;;;;5062326;28;19932;-49
2022/05/06 10:12:30;;;;;;;;;;;22.80;49.60;;;;;;5073379;28;20286;-51
2022/05/06 10:15:00;;;;;;;;;;;22.80;49.50;;;;;;5073816;28;19931;-50
2022/05/06 10:17:45;;;;;;;;;;;22.80;49.50;;;;;;5073847;28;20549;-47
2022/05/06 10:20:31;;;;;;;;;;;22.80;49.50;;;;;;5107368;28;20334;-48
2022/05/06 10:22:59;;;;;;;;;;;22.90;49.50;;;;;;5093675;28;20394;-47
2022/05/06 10:25:46;;;;;;;;;;;22.90;49.50;;;;;;5093555;28;19930;-50
2022/05/06 10:34:14;;;;;;;;;;;22.90;49.40;;;;;;5092952;28;20287;-47
2022/05/06 10:36:41;;;;;;;;;;;22.90;49.40;;;;;;5093074;28;19931;-48
2022/05/06 10:39:20;;;;;;;;;;;22.90;50.00;;;;;;5093630;28;19924;-47
2022/05/06 10:42:07;;;;;;;;;;;22.90;49.30;;;;;;5093845;28;19924;-50
2022/05/06 10:44:38;;;;;;;;;;;22.90;49.40;;;;;;5093237;28;19924;-48
2022/05/06 10:47:11;;;;;;;;;;;22.90;49.40;;;;;;5093189;28;19946;-49
2022/05/06 10:49:38;;;;;;;;;;;23.00;49.40;;;;;;5092771;28;19977;-55
2022/05/06 10:52:33;;;;;;;;;;;22.90;49.30;;;;;;5074378;28;19925;-51
2022/05/06 10:55:01;;;;;;;;;;;22.90;49.40;;;;;;5070843;28;20381;-51
2022/05/06 10:57:31;;;;;;;;;;;22.90;49.40;;;;;;5073824;28;19970;-55
2022/05/06 11:00:07;;;;;;;;;;;22.90;49.40;;;;;;5093289;28;19928;-55
2022/05/06 11:02:35;;;;;;;;;;;22.90;49.40;;;;;;5092957;28;19928;-52
2022/05/06 11:05:04;;;;;;;;;;;22.90;49.40;;;;;;5092622;28;19975;-52
2022/05/06 11:07:32;;;;;;;;;;;23.00;49.50;;;;;;5092568;28;19931;-46
2022/05/06 11:10:06;;;;;;;;;;;22.90;49.40;;;;;;5077645;28;19978;-49
2022/05/06 11:12:34;;;;;;;;;;;22.90;49.40;;;;;;5072525;28;19925;-52
2022/05/06 11:15:03;;;;;;;;;;;22.90;49.30;;;;;;5078988;28;19924;-52
2022/05/06 11:17:31;;;;;;;;;;;23.00;49.50;;;;;;5092786;28;20375;-47
2022/05/06 11:19:59;;;;;;;;;;;22.90;49.40;;;;;;5093090;28;20388;-49
2022/05/06 11:22:26;;;;;;;;;;;22.90;49.40;;;;;;5092688;28;19924;-50
2022/05/06 11:24:56;;;;;;;;;;;23.00;49.50;;;;;;5095733;28;19930;-48
2022/05/06 11:27:25;;;;;;;;;;;22.90;49.50;;;;;;5096908;28;19935;-52
2022/05/06 11:29:55;;;;;;;;;;;22.90;49.50;;;;;;5097060;28;19924;-46
2022/05/06 11:32:26;;;;;;;;;;;22.90;49.50;;;;;;5096950;28;19936;-52
2022/05/06 11:35:09;;;;;;;;;;;22.90;49.60;;;;;;5097307;28;19924;-52
2022/05/06 11:37:40;;;;;;;;;;;22.90;49.60;;;;;;5097404;28;19924;-48
2022/05/06 11:40:32;;;;;;;;;;;22.80;49.50;;;;;;5099554;28;19969;-48
2022/05/06 11:43:00;;;;;;;;;;;22.80;49.60;;;;;;5093283;28;19924;-46
2022/05/06 11:48:14;;;;;;;;;;;22.80;50.30;;;;;;5095177;28;20388;-46
2022/05/06 11:50:41;;;;;;;;;;;22.80;49.70;;;;;;5092419;28;19931;-48
2022/05/06 11:53:09;;;;;;;;;;;22.80;49.70;;;;;;5080318;28;20318;-50
2022/05/06 11:55:37;;;;;;;;;;;22.80;49.80;;;;;;5094933;28;19924;-49
2022/05/06 11:58:05;;;;;;;;;;;22.80;49.90;;;;;;5095917;28;19932;-51
2022/05/06 12:00:32;;;;;;;;;;;22.70;49.90;;;;;;5095657;28;19924;-52
2022/05/06 12:03:06;;;;;;;;;;;22.70;50.00;;;;;;5096522;28;19932;-47
2022/05/06 12:05:34;;;;;;;;;;;22.70;50.00;;;;;;5096422;28;19931;-47
2022/05/06 12:08:01;;;;;;;;;;;22.70;50.20;;;;;;5095995;28;19931;-50
2022/05/06 12:10:32;;;;;;;;;;;22.60;50.20;;;;;;5115648;28;19924;-49
2022/05/06 12:13:10;;;;;;;;;;;22.60;50.20;;;;;;5096850;28;19928;-50
2022/05/06 12:15:43;;;;;;;;;;;22.60;50.30;;;;;;5096487;28;19954;-48
2022/05/06 12:18:11;;;;;;;;;;;22.60;50.30;;;;;;5093516;28;19973;-55
2022/05/06 12:20:40;;;;;;;;;;;22.60;50.30;;;;;;5095908;28;20015;-50
2022/05/06 12:23:09;;;;;;;;;;;22.50;50.30;;;;;;5095989;28;19931;-50
2022/05/06 12:25:41;;;;;;;;;;;22.60;50.40;;;;;;5096354;28;20324;-50
2022/05/06 12:28:11;;;;;;;;;;;22.60;50.40;;;;;;5095997;28;19930;-49
2022/05/06 12:30:38;;;;;;;;;;;22.50;50.40;;;;;;5096540;28;20011;-50
2022/05/06 12:33:09;;;;;;;;;;;22.50;50.40;;;;;;5095761;28;19928;-52
2022/05/06 12:35:55;;;;;;;;;;;22.50;50.50;;;;;;5095396;28;19931;-54
2022/05/06 12:38:23;;;;;;;;;;;22.50;50.60;;;;;;5102945;28;19934;-54
2022/05/06 12:40:50;;;;;;;;;;;22.40;50.60;;;;;;5098183;28;19931;-48
2022/05/06 12:43:24;;;;;;;;;;;22.40;50.60;;;;;;5108812;28;19931;-45
2022/05/06 12:45:55;;;;;;;;;;;22.40;50.60;;;;;;5095550;28;19928;-52
2022/05/06 12:51:07;;;;;;;;;;;22.40;50.70;;;;;;5093173;28;19940;-48
2022/05/06 12:53:35;;;;;;;;;;;22.40;50.80;;;;;;5095401;28;19935;-47
2022/05/06 12:56:02;;;;;;;;;;;22.40;50.80;;;;;;5095823;28;19947;-47
2022/05/06 12:58:30;;;;;;;;;;;22.40;50.90;;;;;;5077160;28;19931;-47
2022/05/06 13:00:57;;;;;;;;;;;22.40;50.90;;;;;;5094898;28;19925;-47
2022/05/06 13:03:25;;;;;;;;;;;22.40;50.90;;;;;;5094819;28;19928;-46
2022/05/06 13:05:54;;;;;;;;;;;22.30;50.90;;;;;;5095076;28;19924;-47
2022/05/06 13:08:21;;;;;;;;;;;22.30;50.90;;;;;;5093213;28;19954;-47
2022/05/06 13:10:48;;;;;;;;;;;22.30;51.00;;;;;;5075333;28;20277;-48
2022/05/06 13:13:15;;;;;;;;;;;22.30;51.00;;;;;;5083701;28;19939;-53
2022/05/06 13:15:42;;;;;;;;;;;22.30;51.20;;;;;;5094884;28;19924;-53
2022/05/06 13:18:10;;;;;;;;;;;22.30;51.20;;;;;;5094686;28;19923;-48
2022/05/06 13:20:37;;;;;;;;;;;22.30;51.20;;;;;;5093856;28;19936;-51
2022/05/06 13:23:04;;;;;;;;;;;22.30;51.10;;;;;;5092412;28;20120;-52
2022/05/06 13:25:31;;;;;;;;;;;22.30;51.20;;;;;;5094590;28;20353;-50
2022/05/06 13:27:58;;;;;;;;;;;22.30;51.10;;;;;;5094791;28;19924;-50
2022/05/06 13:30:27;;;;;;;;;;;22.30;51.20;;;;;;5094438;28;20301;-50
2022/05/06 13:32:54;;;;;;;;;;;22.30;51.20;;;;;;5095044;28;20288;-52
2022/05/06 13:35:22;;;;;;;;;;;22.30;51.20;;;;;;5094605;28;19931;-52
2022/05/06 13:37:50;;;;;;;;;;;22.30;51.20;;;;;;5097696;28;20298;-49
2022/05/06 13:40:17;;;;;;;;;;;22.30;51.20;;;;;;5101176;28;19924;-51
2022/05/06 13:42:44;;;;;;;;;;;22.30;51.20;;;;;;5094125;28;20402;-52
2022/05/06 13:45:12;;;;;;;;;;;22.30;51.20;;;;;;5094413;28;19928;-53
2022/05/06 13:47:39;;;;;;;;;;;22.40;51.30;;;;;;5091829;28;19981;-51
2022/05/06 13:50:07;;;;;;;;;;;22.40;51.20;;;;;;5094433;28;19930;-53
2022/05/06 13:52:35;;;;;;;;;;;22.40;51.20;;;;;;5094339;28;19981;-55
2022/05/06 13:55:06;;;;;;;;;;;22.40;51.20;;;;;;5094022;28;19924;-54
2022/05/06 14:00:30;;;;;;;;;;;22.40;51.10;;;;;;5094330;28;19928;-52
2022/05/06 14:02:58;;;;;;;;;;;22.40;51.10;;;;;;5094576;28;20018;-53
2022/05/06 14:05:26;;;;;;;;;;;22.40;51.10;;;;;;5093903;28;19978;-54
2022/05/06 14:07:59;;;;;;;;;;;22.40;51.10;;;;;;5094183;28;19993;-53
2022/05/06 14:10:27;;;;;;;;;;;22.40;51.10;;;;;;5091631;28;19924;-53
2022/05/06 14:12:54;;;;;;;;;;;22.40;51.20;;;;;;5094379;28;19943;-54
2022/05/06 14:15:21;;;;;;;;;;;22.40;51.20;;;;;;5093910;28;19946;-54
2022/05/06 14:17:48;;;;;;;;;;;22.40;51.20;;;;;;5093934;28;19924;-48
2022/05/06 14:20:15;;;;;;;;;;;22.30;51.20;;;;;;5093896;28;19935;-47
2022/05/06 14:22:42;;;;;;;;;;;22.40;51.30;;;;;;5093439;28;19928;-50
2022/05/06 14:25:09;;;;;;;;;;;22.40;51.30;;;;;;5094004;28;19970;-55
2022/05/06 14:27:36;;;;;;;;;;;22.30;51.30;;;;;;5094006;28;20276;-50
2022/05/06 14:30:04;;;;;;;;;;;22.30;51.90;;;;;;5093657;28;19924;-55
2022/05/06 14:32:31;;;;;;;;;;;22.30;51.40;;;;;;5093857;28;19924;-52
2022/05/06 14:35:16;;;;;;;;;;;22.30;51.40;;;;;;5093162;28;19924;-52
2022/05/06 14:37:43;;;;;;;;;;;22.20;51.40;;;;;;5095476;28;20337;-52
2022/05/06 14:40:11;;;;;;;;;;;22.20;51.40;;;;;;5113645;28;19930;-47
2022/05/06 14:42:38;;;;;;;;;;;22.20;51.40;;;;;;5107413;28;20371;-51
2022/05/06 14:45:05;;;;;;;;;;;22.20;51.50;;;;;;5093375;28;19932;-52
2022/05/06 14:47:32;;;;;;;;;;;22.10;51.50;;;;;;5093419;28;19924;-48
2022/05/06 14:49:59;;;;;;;;;;;22.20;51.60;;;;;;5093545;28;19947;-53
2022/05/06 14:52:26;;;;;;;;;;;22.10;51.60;;;;;;5093247;28;19924;-47
2022/05/06 14:54:56;;;;;;;;;;;22.10;51.60;;;;;;5093277;28;20031;-53
2022/05/06 14:57:24;;;;;;;;;;;22.10;51.60;;;;;;5092506;28;19935;-49
2022/05/06 14:59:51;;;;;;;;;;;22.10;51.60;;;;;;5075319;28;20388;-47
2022/05/06 15:02:18;;;;;;;;;;;22.10;51.70;;;;;;5093539;28;19931;-51
2022/05/06 15:04:45;;;;;;;;;;;22.10;51.70;;;;;;5074774;28;19928;-51
2022/05/06 15:07:12;;;;;;;;;;;22.10;51.80;;;;;;5092864;28;20291;-52
2022/05/06 15:09:39;;;;;;;;;;;22.00;51.70;;;;;;5081071;28;19924;-52
2022/05/06 15:12:07;;;;;;;;;;;22.10;51.90;;;;;;5079696;28;20296;-50
2022/05/06 15:14:34;;;;;;;;;;;22.00;51.80;;;;;;5093256;28;20287;-48
2022/05/06 15:17:03;;;;;;;;;;;22.00;51.80;;;;;;5092937;28;20407;-52